createdAt,value
2022-07-29T00:00:02.113Z,9.93
2022-07-29T00:05:06.716Z,2.45
2022-07-29T00:10:08.849Z,5.93
2022-07-29T00:15:10.732Z,6.03
2022-07-29T00:20:12.587Z,7.25
2022-07-29T00:25:14.590Z,4.20
2022-07-29T00:30:16.702Z,6.82
2022-07-29T00:35:36.726Z,3.35
2022-07-29T00:40:38.512Z,5.10
2022-07-29T00:45:45.505Z,6.35
2022-07-29T00:50:47.449Z,4.57
2022-07-29T00:55:49.193Z,5.80
2022-07-29T01:00:51.327Z,8.88
2022-07-29T01:05:54.174Z,7.40
2022-07-29T01:10:56.315Z,10.75
2022-07-29T01:16:10.834Z,4.35
2022-07-29T01:21:42.406Z,4.43
2022-07-29T01:26:48.021Z,3.50
2022-07-29T01:31:59.839Z,5.97
2022-07-29T01:37:24.927Z,9.23
2022-07-29T01:42:49.613Z,4.00
2022-07-29T01:48:01.157Z,7.70
2022-07-29T01:53:06.348Z,8.90
2022-07-29T01:58:09.575Z,2.78
2022-07-29T02:03:14.030Z,7.95
2022-07-29T02:08:17.918Z,4.40
2022-07-29T02:13:21.607Z,4.80
2022-07-29T02:18:26.185Z,5.00
2022-07-29T02:23:28.786Z,4.88
2022-07-29T02:28:31.931Z,7.75
2022-07-29T02:33:34.605Z,6.80
2022-07-29T02:38:58.477Z,3.80
2022-07-29T02:44:10.364Z,6.10
2022-07-29T02:49:25.134Z,4.30
2022-07-29T02:54:43.330Z,8.35
2022-07-29T02:59:48.965Z,6.55
2022-07-29T03:04:52.530Z,8.15
2022-07-29T03:09:55.214Z,11.18
2022-07-29T03:14:58.686Z,6.57
2022-07-29T03:20:00.826Z,4.15
2022-07-29T03:25:09.719Z,6.40
2022-07-29T03:30:12.713Z,6.57
2022-07-29T03:35:21.382Z,6.53
2022-07-29T03:40:43.900Z,7.68
2022-07-29T03:45:48.792Z,7.85
2022-07-29T03:50:51.669Z,7.93
2022-07-29T03:56:00.204Z,8.32
2022-07-29T04:01:02.078Z,8.20
2022-07-29T04:06:09.221Z,5.65
2022-07-29T04:11:10.899Z,8.63
2022-07-29T04:16:12.570Z,12.90
2022-07-29T04:21:14.281Z,14.52
2022-07-29T04:26:16.057Z,13.95
2022-07-29T04:31:21.189Z,15.55
2022-07-29T04:36:29.167Z,17.55
2022-07-29T04:41:33.139Z,12.07
2022-07-29T04:46:36.641Z,15.55
2022-07-29T04:51:38.911Z,19.50
2022-07-29T04:56:40.615Z,20.27
2022-07-29T05:01:42.278Z,22.13
2022-07-29T05:06:44.636Z,17.60
2022-07-29T05:11:46.338Z,19.30
2022-07-29T05:16:48.069Z,24.30
2022-07-29T05:21:49.768Z,20.05
2022-07-29T05:26:51.428Z,19.02
2022-07-29T05:31:54.019Z,21.08
2022-07-29T05:36:55.689Z,26.63
2022-07-29T05:41:57.469Z,21.20
2022-07-29T05:46:59.109Z,21.80
2022-07-29T05:52:00.770Z,30.23
2022-07-29T05:57:02.756Z,26.85
2022-07-29T06:02:06.216Z,25.13
2022-07-29T06:07:08.384Z,28.50
2022-07-29T06:12:10.557Z,28.17
2022-07-29T06:17:12.800Z,32.47
2022-07-29T06:22:17.628Z,32.20
2022-07-29T06:27:19.261Z,35.10
2022-07-29T06:32:22.899Z,33.00
2022-07-29T06:37:29.145Z,30.67
2022-07-29T06:42:33.762Z,32.50
2022-07-29T06:47:35.399Z,47.85
2022-07-29T06:52:37.986Z,40.70
2022-07-29T06:57:39.619Z,71.78
2022-07-29T07:02:41.299Z,55.42
2022-07-29T07:07:42.973Z,56.35
2022-07-29T07:12:44.688Z,52.00
2022-07-29T07:17:46.318Z,54.85
2022-07-29T07:22:47.957Z,65.00
2022-07-29T07:27:49.688Z,67.60
2022-07-29T07:32:51.417Z,74.82
2022-07-29T07:37:53.049Z,77.20
2022-07-29T07:42:54.817Z,74.15
2022-07-29T07:47:56.481Z,74.40
2022-07-29T07:52:59.378Z,81.63
2022-07-29T07:58:01.008Z,92.38
2022-07-29T08:03:03.501Z,90.22
2022-07-29T08:08:18.821Z,76.93
2022-07-29T08:13:22.197Z,87.32
2022-07-29T08:18:25.603Z,84.15
2022-07-29T08:23:32.959Z,86.18
2022-07-29T08:28:51.416Z,81.18
2022-07-29T08:33:53.352Z,77.50
2022-07-29T08:38:55.150Z,62.70
2022-07-29T08:43:57.099Z,64.63
2022-07-29T08:48:58.802Z,62.30
2022-07-29T08:54:01.448Z,46.45
2022-07-29T08:59:06.963Z,47.55
2022-07-29T09:04:12.841Z,37.03
2022-07-29T09:09:15.279Z,40.17
2022-07-29T09:14:16.978Z,36.55
2022-07-29T09:19:26.025Z,33.80
2022-07-29T09:24:45.239Z,29.70
2022-07-29T09:29:47.306Z,27.83
2022-07-29T09:34:48.990Z,24.08
2022-07-29T09:39:51.184Z,27.48
2022-07-29T09:44:52.852Z,25.95
2022-07-29T09:49:59.381Z,27.73
2022-07-29T09:55:09.162Z,36.38
2022-07-29T10:00:17.034Z,23.63
2022-07-29T10:05:21.615Z,24.38
2022-07-29T10:10:24.861Z,27.17
2022-07-29T10:15:29.540Z,26.15
2022-07-29T10:20:31.712Z,24.20
2022-07-29T10:25:33.435Z,36.78
2022-07-29T10:30:35.491Z,17.25
2022-07-29T10:35:43.211Z,20.92
2022-07-29T10:41:36.275Z,17.20
2022-07-29T10:46:46.345Z,17.25
2022-07-29T10:52:10.413Z,11.85
2022-07-29T10:57:53.057Z,13.02
2022-07-29T11:02:56.484Z,9.80
2022-07-29T11:08:20.488Z,8.98
2022-07-29T11:14:03.572Z,6.40
2022-07-29T11:19:14.592Z,6.47
2022-07-29T11:24:35.236Z,5.80
2022-07-29T11:29:41.745Z,3.70
2022-07-29T11:34:45.301Z,5.35
2022-07-29T11:39:53.712Z,19.70
2022-07-29T11:44:55.304Z,3.40
2022-07-29T11:49:59.947Z,7.07
2022-07-29T11:55:09.937Z,3.92
2022-07-29T12:00:14.563Z,2.65
2022-07-29T12:05:36.019Z,8.70
2022-07-29T12:10:39.732Z,4.47
2022-07-29T12:15:47.175Z,4.90
2022-07-29T12:20:49.717Z,2.63
2022-07-29T12:25:51.525Z,3.53
2022-07-29T12:30:55.673Z,3.33
2022-07-29T12:36:07.177Z,5.95
2022-07-29T12:41:09.932Z,7.55
2022-07-29T12:46:15.971Z,3.25
2022-07-29T12:51:17.978Z,3.25
2022-07-29T12:56:41.722Z,2.67
2022-07-29T13:01:42.191Z,4.57
2022-07-29T13:06:51.075Z,4.80
2022-07-29T13:11:54.193Z,3.15
2022-07-29T13:17:16.773Z,11.02
2022-07-29T13:22:20.509Z,5.65
2022-07-29T13:27:27.148Z,6.28
2022-07-29T13:32:31.210Z,2.97
2022-07-29T13:37:35.284Z,2.25
2022-07-29T13:42:37.385Z,8.55
2022-07-29T13:47:39.352Z,2.53
2022-07-29T13:52:41.021Z,4.05
2022-07-29T13:57:42.697Z,8.15
2022-07-29T14:02:44.452Z,4.15
2022-07-29T14:07:46.188Z,4.40
2022-07-29T14:12:47.835Z,2.67
2022-07-29T14:17:49.483Z,3.85
2022-07-29T14:22:51.173Z,2.90
2022-07-29T14:27:54.195Z,2.50
2022-07-29T14:32:55.824Z,4.45
2022-07-29T14:37:58.216Z,4.88
2022-07-29T14:42:59.861Z,8.73
2022-07-29T14:48:01.673Z,5.65
2022-07-29T14:53:03.864Z,5.32
2022-07-29T14:58:10.942Z,4.10
2022-07-29T15:03:22.944Z,8.07
2022-07-29T15:08:26.388Z,2.97
2022-07-29T15:13:28.069Z,3.17
2022-07-29T15:18:29.701Z,5.45
2022-07-29T15:23:31.337Z,6.72
2022-07-29T15:28:32.979Z,5.38
2022-07-29T15:33:34.631Z,3.72
2022-07-29T15:38:41.892Z,8.85
2022-07-29T15:43:50.305Z,2.75
2022-07-29T15:48:52.007Z,9.45
2022-07-29T15:53:53.882Z,2.70
2022-07-29T15:58:55.675Z,9.68
2022-07-29T16:03:58.408Z,3.60
2022-07-29T16:09:00.624Z,3.67
2022-07-29T16:14:02.388Z,7.70
2022-07-29T16:19:04.899Z,5.28
2022-07-29T16:24:07.151Z,8.75
2022-07-29T16:29:08.828Z,3.25
2022-07-29T16:34:10.459Z,7.93
2022-07-29T16:39:12.806Z,6.57
2022-07-29T16:44:14.515Z,3.38
2022-07-29T16:49:19.351Z,6.38
2022-07-29T16:54:21.304Z,6.65
2022-07-29T16:59:23.024Z,8.07
2022-07-29T17:04:24.687Z,7.40
2022-07-29T17:09:26.443Z,10.75
2022-07-29T17:14:31.125Z,9.95
2022-07-29T17:19:35.452Z,7.50
2022-07-29T17:24:37.291Z,9.93
2022-07-29T17:29:40.257Z,8.85
2022-07-29T17:34:43.035Z,17.92
2022-07-29T17:39:44.948Z,62.40
2022-07-29T17:44:46.596Z,12.25
2022-07-29T17:49:48.253Z,11.00
2022-07-29T17:54:49.984Z,10.15
2022-07-29T17:59:51.734Z,8.65
2022-07-29T18:04:53.377Z,14.68
2022-07-29T18:10:00.019Z,9.77
2022-07-29T18:15:02.162Z,7.82
2022-07-29T18:20:04.815Z,10.02
2022-07-29T18:25:07.683Z,10.00
2022-07-29T18:30:09.549Z,11.38
2022-07-29T18:35:11.237Z,9.82
2022-07-29T18:40:13.144Z,7.55
2022-07-29T18:45:19.261Z,9.25
2022-07-29T18:50:26.946Z,11.90
2022-07-29T18:55:30.789Z,7.07
2022-07-29T19:00:32.426Z,9.05
2022-07-29T19:05:34.136Z,7.95
2022-07-29T19:10:35.770Z,14.07
2022-07-29T19:15:37.518Z,10.77
2022-07-29T19:20:39.969Z,6.03
2022-07-29T19:25:48.201Z,10.50
2022-07-29T19:30:55.765Z,8.63
2022-07-29T19:35:57.755Z,14.25
2022-07-29T19:40:59.450Z,10.68
2022-07-29T19:46:01.187Z,8.10
2022-07-29T19:51:03.115Z,10.38
2022-07-29T19:56:05.261Z,8.15
2022-07-29T20:01:11.420Z,10.93
2022-07-29T20:06:13.295Z,10.20
2022-07-29T20:11:14.968Z,6.80
2022-07-29T20:16:16.858Z,6.43
2022-07-29T20:21:18.567Z,17.55
2022-07-29T20:26:20.218Z,7.50
2022-07-29T20:31:22.273Z,10.10
2022-07-29T20:36:24.102Z,6.07
2022-07-29T20:41:26.329Z,10.48
2022-07-29T20:46:28.104Z,8.93
2022-07-29T20:51:29.779Z,6.97
2022-07-29T20:56:31.439Z,8.68
2022-07-29T21:01:33.168Z,7.88
2022-07-29T21:06:35.054Z,14.43
2022-07-29T21:11:44.692Z,11.52
2022-07-29T21:16:46.752Z,9.23
2022-07-29T21:21:48.408Z,10.02
2022-07-29T21:27:10.967Z,9.98
2022-07-29T21:32:11.745Z,7.43
2022-07-29T21:37:13.417Z,8.23
2022-07-29T21:42:15.155Z,8.63
2022-07-29T21:47:16.794Z,12.15
2022-07-29T21:52:18.899Z,6.07
2022-07-29T21:57:20.566Z,12.82
2022-07-29T22:02:22.214Z,13.95
2022-07-29T22:07:23.843Z,12.07
2022-07-29T22:12:25.480Z,14.13
2022-07-29T22:17:27.178Z,12.43
2022-07-29T22:22:28.903Z,9.63
2022-07-29T22:27:30.709Z,9.75
2022-07-29T22:32:34.155Z,21.42
2022-07-29T22:37:35.841Z,12.77
2022-07-29T22:42:40.708Z,8.25
2022-07-29T22:47:48.040Z,9.77
2022-07-29T22:52:50.193Z,8.55
2022-07-29T22:57:51.848Z,5.60
2022-07-29T23:02:53.528Z,8.63
2022-07-29T23:07:55.207Z,5.97
2022-07-29T23:12:56.916Z,7.63
2022-07-29T23:17:59.459Z,10.82
2022-07-29T23:23:01.143Z,15.32
2022-07-29T23:28:03.575Z,11.43
2022-07-29T23:33:05.272Z,12.93
2022-07-29T23:38:06.939Z,11.18
2022-07-29T23:43:09.090Z,14.70
2022-07-29T23:48:10.805Z,9.35
2022-07-29T23:53:12.773Z,6.43
2022-07-29T23:58:14.513Z,5.43
